Time;durP1;ratioP1;P1;durP2;ratioP2;P2;SDS_P1;SDS_P2;PMS_P1;PMS_P2;Temp;Humidity;BMP_temperature;BMP_pressure;BME280_temperature;BME280_humidity;BME280_pressure;Samples;Min_cycle;Max_cycle;Signal;HPM_P1;HPM_P2
2021/06/20 00:03:56;;;;;;;9.47;7.70;;;22.50;99.90;;;;;;8412052;28;20228;-79
2021/06/20 00:08:00;;;;;;;18.30;8.03;;;22.50;99.90;;;;;;8418038;28;20183;-80
2021/06/20 00:12:05;;;;;;;24.70;8.67;;;22.50;99.90;;;;;;8395142;28;20276;-80
2021/06/20 00:16:08;;;;;;;22.23;10.57;;;22.40;99.90;;;;;;8432605;28;20429;-80
2021/06/20 00:20:11;;;;;;;13.67;8.70;;;22.40;99.90;;;;;;8415478;28;20761;-80
2021/06/20 00:24:14;;;;;;;17.60;9.33;;;22.50;99.90;;;;;;8412864;28;20495;-80
2021/06/20 00:28:18;;;;;;;17.07;9.77;;;22.50;99.90;;;;;;8412412;28;20411;-81
2021/06/20 00:32:21;;;;;;;19.23;10.13;;;22.40;99.90;;;;;;8417200;28;20410;-81
2021/06/20 00:36:22;;;;;;;19.60;8.97;;;22.30;99.90;;;;;;8426798;28;20415;-81
2021/06/20 00:40:24;;;;;;;11.77;9.40;;;22.20;99.90;;;;;;8420285;28;20805;-81
2021/06/20 00:44:25;;;;;;;13.67;6.53;;;22.20;99.90;;;;;;8423938;28;20213;-82
2021/06/20 00:48:25;;;;;;;15.07;9.23;;;22.20;99.90;;;;;;8424729;28;20455;-81
2021/06/20 00:52:26;;;;;;;20.10;8.90;;;22.10;99.90;;;;;;8411088;28;20870;-81
2021/06/20 00:56:30;;;;;;;22.67;9.40;;;22.20;99.90;;;;;;8422602;28;20190;-81
2021/06/20 01:00:35;;;;;;;23.30;9.10;;;22.20;99.90;;;;;;8412374;28;20189;-82
2021/06/20 01:04:39;;;;;;;23.50;7.60;;;22.20;99.90;;;;;;8427739;28;20459;-81
2021/06/20 01:08:40;;;;;;;17.77;7.33;;;22.30;99.90;;;;;;8426903;28;20446;-81
2021/06/20 01:12:50;;;;;;;18.63;7.93;;;22.30;99.90;;;;;;8418292;28;20468;-82
2021/06/20 01:16:54;;;;;;;11.93;7.27;;;22.30;99.90;;;;;;8427790;28;20253;-81
2021/06/20 01:20:55;;;;;;;16.43;7.83;;;22.40;99.90;;;;;;8427020;28;20448;-82
2021/06/20 01:25:03;;;;;;;9.63;6.57;;;22.40;99.90;;;;;;8424854;28;20468;-82
2021/06/20 01:29:09;;;;;;;11.10;6.87;;;22.40;99.90;;;;;;8424709;28;20450;-82
2021/06/20 01:33:14;;;;;;;14.30;6.70;;;22.40;99.90;;;;;;8419101;28;20558;-82
2021/06/20 01:37:19;;;;;;;12.60;7.13;;;22.40;99.90;;;;;;8420387;28;20447;-82
2021/06/20 01:41:20;;;;;;;15.63;7.70;;;22.50;99.90;;;;;;8420242;28;20604;-82
2021/06/20 01:45:23;;;;;;;16.33;7.50;;;22.50;99.90;;;;;;8423089;28;20436;-81
2021/06/20 01:49:23;;;;;;;12.67;7.10;;;22.50;99.90;;;;;;8417373;28;20206;-82
2021/06/20 01:53:24;;;;;;;20.17;8.50;;;22.60;99.90;;;;;;8423427;28;20433;-81
2021/06/20 01:57:27;;;;;;;22.37;9.83;;;22.60;99.90;;;;;;8421313;28;20186;-81
2021/06/20 02:01:32;;;;;;;20.20;8.90;;;22.70;99.90;;;;;;8424053;28;20284;-82
2021/06/20 02:05:33;;;;;;;13.03;8.27;;;22.70;99.90;;;;;;8429068;28;20418;-82
2021/06/20 02:09:37;;;;;;;20.70;9.37;;;22.70;99.90;;;;;;8418402;28;20426;-82
2021/06/20 02:13:41;;;;;;;23.53;11.23;;;22.70;99.90;;;;;;8430940;28;20190;-82
2021/06/20 02:17:42;;;;;;;18.77;9.60;;;22.70;99.90;;;;;;8415291;28;20491;-82
2021/06/20 02:21:43;;;;;;;23.33;9.90;;;22.80;99.90;;;;;;8416927;28;20499;-82
2021/06/20 02:25:43;;;;;;;19.77;8.30;;;22.90;99.90;;;;;;8418337;28;20200;-82
2021/06/20 02:29:49;;;;;;;15.60;8.27;;;22.90;99.90;;;;;;8421699;28;20185;-83
2021/06/20 02:33:49;;;;;;;17.43;9.00;;;22.90;99.90;;;;;;8424421;28;20187;-83
2021/06/20 02:37:54;;;;;;;25.50;8.67;;;22.90;99.90;;;;;;8420508;28;20439;-83
2021/06/20 02:41:55;;;;;;;13.50;8.10;;;22.90;99.90;;;;;;8426730;28;20344;-83
2021/06/20 02:46:01;;;;;;;23.87;7.83;;;22.90;99.90;;;;;;8423226;28;20437;-83
2021/06/20 02:50:03;;;;;;;27.93;9.60;;;22.90;99.90;;;;;;8424796;28;20258;-83
2021/06/20 02:54:04;;;;;;;17.57;8.90;;;22.90;99.90;;;;;;8426002;28;20445;-83
2021/06/20 02:58:04;;;;;;;19.77;9.93;;;22.80;99.90;;;;;;8428563;28;20438;-83
2021/06/20 03:02:05;;;;;;;18.23;9.17;;;22.70;99.90;;;;;;8419072;28;20569;-83
2021/06/20 03:06:06;;;;;;;15.80;8.60;;;22.60;99.90;;;;;;8413396;28;20612;-83
2021/06/20 03:10:08;;;;;;;15.17;8.90;;;22.60;99.90;;;;;;8419897;28;20188;-83
2021/06/20 03:14:15;;;;;;;14.80;8.67;;;22.60;99.90;;;;;;8428766;28;20451;-83
2021/06/20 03:18:16;;;;;;;16.13;9.27;;;22.50;99.90;;;;;;8430815;28;20437;-83
2021/06/20 03:22:17;;;;;;;22.07;7.50;;;22.40;99.90;;;;;;8420951;28;20464;-83
2021/06/20 03:26:18;;;;;;;15.30;8.53;;;22.40;99.90;;;;;;8426293;28;20176;-82
2021/06/20 03:30:20;;;;;;;15.80;7.33;;;22.30;99.80;;;;;;8430366;28;21154;-83
2021/06/20 03:34:22;;;;;;;19.80;8.33;;;22.30;99.90;;;;;;8427575;28;20198;-82
2021/06/20 03:38:22;;;;;;;7.30;5.63;;;22.20;99.50;;;;;;8416605;28;20573;-83
2021/06/20 03:42:23;;;;;;;10.90;6.00;;;22.10;99.10;;;;;;8423389;28;20997;-82
2021/06/20 03:46:29;;;;;;;12.00;5.10;;;22.10;99.10;;;;;;8416809;28;20184;-81
2021/06/20 03:50:30;;;;;;;10.07;6.30;;;22.00;98.40;;;;;;8418044;28;20196;-81
2021/06/20 03:54:31;;;;;;;7.13;5.03;;;21.90;98.50;;;;;;8404095;28;20475;-82
2021/06/20 03:58:32;;;;;;;10.53;5.10;;;21.90;98.30;;;;;;8407835;28;20191;-82
2021/06/20 04:02:33;;;;;;;7.80;5.10;;;21.80;98.60;;;;;;8408937;28;20492;-81
2021/06/20 04:06:35;;;;;;;5.60;4.80;;;21.80;98.50;;;;;;8414470;28;20188;-81
2021/06/20 04:10:35;;;;;;;4.20;3.87;;;21.70;98.70;;;;;;8411323;28;20188;-81
2021/06/20 04:14:41;;;;;;;10.10;5.53;;;21.70;98.40;;;;;;8409618;28;20484;-81
2021/06/20 04:18:41;;;;;;;6.20;5.60;;;21.70;98.40;;;;;;8414402;28;20180;-81
2021/06/20 04:22:43;;;;;;;8.43;5.23;;;21.70;98.50;;;;;;8415449;28;20484;-81
2021/06/20 04:26:44;;;;;;;11.67;4.70;;;21.70;98.30;;;;;;8409332;28;20171;-81
2021/06/20 04:30:52;;;;;;;6.93;5.13;;;21.70;98.40;;;;;;8415172;28;20531;-82
2021/06/20 04:34:53;;;;;;;9.03;5.17;;;21.70;98.30;;;;;;8416438;28;20187;-80
2021/06/20 04:38:54;;;;;;;4.47;4.17;;;21.70;98.30;;;;;;8408788;28;20434;-80
2021/06/20 04:43:04;;;;;;;14.00;4.60;;;21.70;98.20;;;;;;8414733;28;20195;-80
2021/06/20 04:47:05;;;;;;;8.30;4.50;;;21.70;98.20;;;;;;8418653;28;20437;-80
2021/06/20 04:51:06;;;;;;;7.17;3.90;;;21.70;98.10;;;;;;8409330;28;20594;-79
2021/06/20 04:55:07;;;;;;;6.20;4.13;;;21.70;97.90;;;;;;8417785;28;21057;-79
2021/06/20 04:59:08;;;;;;;8.23;4.03;;;21.70;97.80;;;;;;8419584;28;20185;-79
2021/06/20 05:03:09;;;;;;;5.17;3.23;;;21.80;97.90;;;;;;8413717;28;20459;-80
2021/06/20 05:07:13;;;;;;;7.70;4.50;;;21.80;97.60;;;;;;8426946;28;20470;-79
2021/06/20 05:11:16;;;;;;;4.20;3.80;;;21.90;97.30;;;;;;8424331;28;20203;-80
2021/06/20 05:15:16;;;;;;;5.97;3.90;;;21.90;97.30;;;;;;8419605;28;20448;-83
2021/06/20 05:19:17;;;;;;;3.13;2.97;;;22.00;97.30;;;;;;8420817;28;20448;-83
2021/06/20 05:23:20;;;;;;;4.00;3.70;;;22.00;96.90;;;;;;8433874;28;20205;-83
2021/06/20 05:27:21;;;;;;;5.30;4.80;;;22.10;96.90;;;;;;8424249;28;20184;-84
2021/06/20 05:31:21;;;;;;;5.73;3.60;;;22.10;96.80;;;;;;8422994;28;20442;-83
2021/06/20 05:35:22;;;;;;;6.97;3.80;;;22.20;96.30;;;;;;8425139;28;20200;-85
2021/06/20 05:39:23;;;;;;;5.70;3.67;;;22.30;96.20;;;;;;8430406;28;20237;-85
2021/06/20 05:43:23;;;;;;;4.53;3.43;;;22.30;96.30;;;;;;8425902;28;20193;-84
2021/06/20 05:47:24;;;;;;;3.40;3.10;;;22.40;96.00;;;;;;8443438;27;20178;-84
2021/06/20 05:51:25;;;;;;;4.60;3.80;;;22.50;95.90;;;;;;8423964;28;20230;-84
2021/06/20 05:55:26;;;;;;;4.43;3.93;;;22.60;95.80;;;;;;8420661;28;20186;-84
2021/06/20 05:59:26;;;;;;;4.87;4.37;;;22.70;95.50;;;;;;8419074;28;20261;-84
2021/06/20 06:03:27;;;;;;;5.30;4.03;;;22.80;95.70;;;;;;8431031;28;20877;-85
2021/06/20 06:07:28;;;;;;;5.13;3.90;;;22.90;95.30;;;;;;8426490;28;20243;-84
2021/06/20 06:11:28;;;;;;;3.87;2.90;;;23.10;94.80;;;;;;8423580;28;20189;-84
2021/06/20 06:15:30;;;;;;;3.07;2.87;;;23.30;94.40;;;;;;8417137;28;20209;-84
2021/06/20 06:19:31;;;;;;;3.23;3.00;;;23.50;93.80;;;;;;8423954;28;20284;-84
2021/06/20 06:23:32;;;;;;;3.87;3.27;;;23.80;93.30;;;;;;8425666;28;20464;-83
2021/06/20 06:27:32;;;;;;;5.10;4.00;;;24.10;92.80;;;;;;8427236;28;20645;-84
2021/06/20 06:31:36;;;;;;;3.47;3.17;;;24.30;92.80;;;;;;8420174;28;20502;-84
2021/06/20 06:35:37;;;;;;;3.57;3.27;;;24.50;92.00;;;;;;8426998;28;20236;-83
2021/06/20 06:39:38;;;;;;;3.83;3.13;;;24.50;91.40;;;;;;8419850;28;20426;-83
2021/06/20 06:43:39;;;;;;;4.07;2.90;;;24.60;91.50;;;;;;8419276;28;20441;-82
2021/06/20 06:47:39;;;;;;;3.00;2.60;;;24.60;90.80;;;;;;8424842;28;20538;-82
2021/06/20 06:51:40;;;;;;;4.50;3.63;;;24.70;91.30;;;;;;8417521;28;20205;-82
2021/06/20 06:55:41;;;;;;;3.93;3.50;;;24.90;90.90;;;;;;8425691;28;20182;-81
2021/06/20 06:59:41;;;;;;;5.20;3.10;;;25.00;90.80;;;;;;8416819;28;20185;-82
2021/06/20 07:03:42;;;;;;;4.97;3.60;;;25.20;90.80;;;;;;8427867;28;20235;-83
2021/06/20 07:07:43;;;;;;;4.23;2.50;;;25.30;90.50;;;;;;8416773;28;20182;-83
2021/06/20 07:11:43;;;;;;;6.23;3.47;;;25.30;90.00;;;;;;8431166;28;21045;-83
2021/06/20 07:15:44;;;;;;;3.47;2.83;;;25.40;90.20;;;;;;8424700;28;20178;-82
2021/06/20 07:19:45;;;;;;;7.40;2.70;;;25.50;88.50;;;;;;8420655;28;20312;-82
2021/06/20 07:23:48;;;;;;;3.60;2.53;;;25.70;87.40;;;;;;8420212;28;20252;-81
2021/06/20 07:27:51;;;;;;;2.60;2.23;;;25.70;86.20;;;;;;8413171;28;20182;-82
2021/06/20 07:31:52;;;;;;;8.67;2.87;;;25.70;86.10;;;;;;8414996;28;20440;-83
2021/06/20 07:35:52;;;;;;;8.17;2.60;;;25.70;85.20;;;;;;8411067;28;20415;-84
2021/06/20 07:39:55;;;;;;;2.60;2.40;;;25.80;83.90;;;;;;8415709;28;20194;-82
2021/06/20 07:43:56;;;;;;;3.30;2.47;;;25.80;84.10;;;;;;8413953;28;20260;-82
2021/06/20 07:47:56;;;;;;;2.80;2.47;;;25.90;83.20;;;;;;8415267;28;20482;-83
